PRJAQ SABE-SAZS
Flight info
| Callsign | PRJAQ |
|---|---|
| Flight time | 1h 47m |
| Altitude | 43000 |
| Route | PAL9 TORUL UT654 ORERA ORERA2Q |
| Aircraft | C750/M-SBDE3FGHRWXY/S |
Departure
| Time | 2026-05-08 00:46 |
|---|---|
| Airport | Aeroparque Jorge Newbery (SABE) |
Arrival
| Time | 2026-05-08 02:34 |
|---|---|
| Airport | Teniente Luis Candelaria International Airport (SAZS) |
| Time | Latitude | Longitude | Altitude | Speed | Heading |
|---|---|---|---|---|---|
| 2026-05-08 00:00 | -34.56218 | -58.41364 | 24 ft | 0 kts | 214° |
| 2026-05-08 00:33 | -34.56220 | -58.41365 | 24 ft | 2 kts | 214° |
| 2026-05-08 00:34 | -34.56254 | -58.41358 | 24 ft | 8 kts | 142° |
| 2026-05-08 00:34 | -34.56301 | -58.41286 | 25 ft | 13 kts | 124° |
| 2026-05-08 00:34 | -34.56350 | -58.41196 | 24 ft | 12 kts | 125° |
| 2026-05-08 00:34 | -34.56396 | -58.41115 | 23 ft | 11 kts | 124° |
| 2026-05-08 00:35 | -34.56437 | -58.41040 | 23 ft | 10 kts | 124° |
| 2026-05-08 00:35 | -34.56475 | -58.40972 | 25 ft | 9 kts | 124° |
| 2026-05-08 00:35 | -34.56510 | -58.40909 | 23 ft | 8 kts | 121° |
| 2026-05-08 00:35 | -34.56513 | -58.40864 | 23 ft | 4 kts | 73° |
| 2026-05-08 00:36 | -34.56510 | -58.40855 | 25 ft | 0 kts | 69° |
| 2026-05-08 00:40 | -34.56506 | -58.40842 | 25 ft | 6 kts | 67° |
| 2026-05-08 00:40 | -34.56489 | -58.40796 | 25 ft | 6 kts | 66° |
| 2026-05-08 00:41 | -34.56482 | -58.40775 | 23 ft | 0 kts | 66° |
| 2026-05-08 00:44 | -34.56477 | -58.40762 | 23 ft | 4 kts | 66° |
| 2026-05-08 00:44 | -34.56463 | -58.40724 | 24 ft | 6 kts | 66° |
| 2026-05-08 00:45 | -34.56425 | -58.40697 | 21 ft | 7 kts | 347° |
| 2026-05-08 00:45 | -34.56395 | -58.40730 | 22 ft | 5 kts | 307° |
| 2026-05-08 00:45 | -34.56388 | -58.40743 | 23 ft | 0 kts | 304° |
| 2026-05-08 00:45 | -34.56386 | -58.40745 | 22 ft | 3 kts | 304° |
| 2026-05-08 00:46 | -34.56258 | -58.40975 | 25 ft | 84 kts | 305° |
| 2026-05-08 00:46 | -34.55776 | -58.41846 | 53 ft | 150 kts | 302° |
| 2026-05-08 00:46 | -34.55165 | -58.42923 | 625 ft | 160 kts | 300° |
| 2026-05-08 00:46 | -34.54444 | -58.44064 | 977 ft | 192 kts | 311° |
| 2026-05-08 00:47 | -34.53054 | -58.44804 | 1068 ft | 250 kts | 348° |
| 2026-05-08 00:47 | -34.51289 | -58.44269 | 1827 ft | 268 kts | 22° |
| 2026-05-08 00:47 | -34.49668 | -58.43087 | 2747 ft | 279 kts | 30° |
| 2026-05-08 00:47 | -34.48059 | -58.41774 | 3627 ft | 285 kts | 31° |
| 2026-05-08 00:48 | -34.46373 | -58.40469 | 4661 ft | 288 kts | 29° |
| 2026-05-08 00:48 | -34.44660 | -58.39200 | 5742 ft | 289 kts | 29° |
| 2026-05-08 00:48 | -34.42980 | -58.37851 | 6714 ft | 293 kts | 37° |
| 2026-05-08 00:48 | -34.41810 | -58.35811 | 7688 ft | 299 kts | 66° |
| 2026-05-08 00:49 | -34.41479 | -58.33343 | 8892 ft | 301 kts | 91° |
| 2026-05-08 00:49 | -34.42089 | -58.30904 | 9832 ft | 310 kts | 118° |
| 2026-05-08 00:49 | -34.43580 | -58.28985 | 10393 ft | 324 kts | 146° |
| 2026-05-08 00:49 | -34.45756 | -58.28004 | 10446 ft | 349 kts | 174° |
| 2026-05-08 00:50 | -34.48204 | -58.28356 | 10591 ft | 362 kts | 204° |
| 2026-05-08 00:50 | -34.50210 | -58.30074 | 11399 ft | 351 kts | 231° |
| 2026-05-08 00:50 | -34.51399 | -58.32612 | 12071 ft | 347 kts | 251° |
| 2026-05-08 00:50 | -34.52448 | -58.35279 | 12771 ft | 353 kts | 246° |
| 2026-05-08 00:51 | -34.53330 | -58.38057 | 13378 ft | 354 kts | 258° |
| 2026-05-08 00:51 | -34.53850 | -58.40980 | 14059 ft | 356 kts | 262° |
| 2026-05-08 00:51 | -34.54390 | -58.43933 | 14663 ft | 361 kts | 259° |
| 2026-05-08 00:51 | -34.55152 | -58.46861 | 15278 ft | 368 kts | 252° |
| 2026-05-08 00:52 | -34.56273 | -58.49683 | 15929 ft | 374 kts | 245° |
| 2026-05-08 00:52 | -34.57115 | -58.51511 | 16377 ft | 377 kts | 243° |
| 2026-05-08 00:52 | -34.59075 | -58.55093 | 17156 ft | 390 kts | 231° |
| 2026-05-08 00:52 | -34.61192 | -58.57189 | 17882 ft | 398 kts | 215° |
| 2026-05-08 00:53 | -34.63759 | -58.58539 | 18440 ft | 409 kts | 198° |
| 2026-05-08 00:53 | -34.66588 | -58.58948 | 18923 ft | 422 kts | 180° |
| 2026-05-08 00:53 | -34.69513 | -58.58336 | 19426 ft | 431 kts | 165° |
| 2026-05-08 00:53 | -34.71432 | -58.57645 | 19782 ft | 437 kts | 163° |
| 2026-05-08 00:54 | -34.75455 | -58.56683 | 20320 ft | 446 kts | 179° |
| 2026-05-08 00:54 | -34.78564 | -58.56831 | 20873 ft | 449 kts | 191° |
| 2026-05-08 00:54 | -34.80590 | -58.57350 | 21213 ft | 450 kts | 200° |
| 2026-05-08 00:54 | -34.83496 | -58.58725 | 21771 ft | 448 kts | 213° |
| 2026-05-08 00:55 | -34.86108 | -58.60759 | 22343 ft | 444 kts | 225° |
| 2026-05-08 00:55 | -34.88312 | -58.63336 | 22952 ft | 436 kts | 237° |
| 2026-05-08 00:55 | -34.90142 | -58.66263 | 23530 ft | 435 kts | 243° |
| 2026-05-08 00:55 | -34.91941 | -58.69241 | 24061 ft | 439 kts | 242° |
| 2026-05-08 00:56 | -34.93768 | -58.72247 | 24583 ft | 443 kts | 242° |
| 2026-05-08 00:56 | -34.95608 | -58.75283 | 25098 ft | 447 kts | 242° |
| 2026-05-08 00:56 | -34.97460 | -58.78353 | 25607 ft | 452 kts | 242° |
| 2026-05-08 00:56 | -34.99329 | -58.81450 | 26113 ft | 456 kts | 242° |
| 2026-05-08 00:57 | -35.01219 | -58.84577 | 26611 ft | 460 kts | 242° |
| 2026-05-08 00:57 | -35.03126 | -58.87737 | 27127 ft | 464 kts | 242° |
| 2026-05-08 00:57 | -35.05047 | -58.90927 | 27631 ft | 469 kts | 242° |
| 2026-05-08 00:57 | -35.06985 | -58.94148 | 28132 ft | 473 kts | 242° |
| 2026-05-08 00:58 | -35.08941 | -58.97399 | 28626 ft | 477 kts | 242° |
| 2026-05-08 00:58 | -35.10887 | -59.00637 | 29109 ft | 481 kts | 242° |
| 2026-05-08 00:58 | -35.12904 | -59.03997 | 29606 ft | 485 kts | 242° |
| 2026-05-08 00:58 | -35.14880 | -59.07293 | 30027 ft | 489 kts | 241° |
| 2026-05-08 00:59 | -35.16893 | -59.10649 | 30501 ft | 491 kts | 241° |
| 2026-05-08 00:59 | -35.18910 | -59.14015 | 31107 ft | 489 kts | 240° |
| 2026-05-08 00:59 | -35.20905 | -59.17352 | 31843 ft | 484 kts | 240° |
| 2026-05-08 00:59 | -35.22839 | -59.20702 | 32526 ft | 480 kts | 241° |
| 2026-05-08 01:00 | -35.24720 | -59.24057 | 33197 ft | 477 kts | 240° |
| 2026-05-08 01:00 | -35.26619 | -59.27379 | 33856 ft | 475 kts | 239° |
| 2026-05-08 01:00 | -35.28534 | -59.30663 | 34442 ft | 472 kts | 239° |
| 2026-05-08 01:00 | -35.30423 | -59.33935 | 35022 ft | 469 kts | 239° |
| 2026-05-08 01:01 | -35.32283 | -59.37210 | 35610 ft | 466 kts | 239° |
| 2026-05-08 01:01 | -35.34134 | -59.40460 | 36204 ft | 464 kts | 239° |
| 2026-05-08 01:01 | -35.35965 | -59.43646 | 36790 ft | 462 kts | 239° |
| 2026-05-08 01:01 | -35.37818 | -59.46847 | 37388 ft | 460 kts | 238° |
| 2026-05-08 01:02 | -35.39690 | -59.50013 | 37993 ft | 458 kts | 238° |
| 2026-05-08 01:02 | -35.41582 | -59.53209 | 38534 ft | 456 kts | 238° |
| 2026-05-08 01:02 | -35.43397 | -59.56321 | 38976 ft | 455 kts | 238° |
| 2026-05-08 01:02 | -35.45233 | -59.59481 | 39419 ft | 454 kts | 238° |
| 2026-05-08 01:03 | -35.47072 | -59.62625 | 39863 ft | 454 kts | 237° |
| 2026-05-08 01:03 | -35.48913 | -59.65766 | 40320 ft | 453 kts | 237° |
| 2026-05-08 01:03 | -35.50745 | -59.68907 | 40771 ft | 452 kts | 237° |
| 2026-05-08 01:03 | -35.52571 | -59.72047 | 41223 ft | 451 kts | 237° |
| 2026-05-08 01:04 | -35.54393 | -59.75178 | 41675 ft | 450 kts | 237° |
| 2026-05-08 01:04 | -35.56212 | -59.78301 | 42130 ft | 449 kts | 237° |
| 2026-05-08 01:04 | -35.58020 | -59.81410 | 42569 ft | 444 kts | 237° |
| 2026-05-08 01:04 | -35.59821 | -59.84514 | 42679 ft | 451 kts | 237° |
| 2026-05-08 01:05 | -35.61654 | -59.87681 | 42688 ft | 459 kts | 237° |
| 2026-05-08 01:05 | -35.65436 | -59.94203 | 42705 ft | 476 kts | 237° |
| 2026-05-08 01:06 | -35.69335 | -60.00948 | 42707 ft | 490 kts | 237° |
| 2026-05-08 01:06 | -35.73313 | -60.07838 | 42703 ft | 495 kts | 237° |
| 2026-05-08 01:07 | -35.77293 | -60.14748 | 42707 ft | 494 kts | 237° |
| 2026-05-08 01:07 | -35.81262 | -60.21654 | 42715 ft | 494 kts | 237° |
| 2026-05-08 01:08 | -35.85223 | -60.28557 | 42712 ft | 493 kts | 237° |
| 2026-05-08 01:08 | -35.89151 | -60.35419 | 42715 ft | 493 kts | 237° |
| 2026-05-08 01:09 | -35.93096 | -60.42323 | 42717 ft | 492 kts | 237° |
| 2026-05-08 01:09 | -35.97040 | -60.49239 | 42723 ft | 492 kts | 236° |
| 2026-05-08 01:10 | -36.00975 | -60.56154 | 42727 ft | 491 kts | 236° |
| 2026-05-08 01:10 | -36.04902 | -60.63068 | 42734 ft | 491 kts | 236° |
| 2026-05-08 01:11 | -36.08820 | -60.69981 | 42736 ft | 491 kts | 236° |
| 2026-05-08 01:11 | -36.12736 | -60.76903 | 42737 ft | 491 kts | 236° |
| 2026-05-08 01:12 | -36.16600 | -60.83791 | 42730 ft | 490 kts | 237° |
| 2026-05-08 01:12 | -36.20475 | -60.90721 | 42740 ft | 490 kts | 236° |
| 2026-05-08 01:13 | -36.24354 | -60.97661 | 42745 ft | 490 kts | 237° |
| 2026-05-08 01:13 | -36.28229 | -61.04619 | 42749 ft | 489 kts | 236° |
| 2026-05-08 01:14 | -36.32096 | -61.11568 | 42752 ft | 489 kts | 236° |
| 2026-05-08 01:14 | -36.35956 | -61.18523 | 42758 ft | 489 kts | 236° |
| 2026-05-08 01:15 | -36.39784 | -61.25433 | 42759 ft | 488 kts | 236° |
| 2026-05-08 01:15 | -36.43620 | -61.32380 | 42754 ft | 488 kts | 236° |
| 2026-05-08 01:16 | -36.47453 | -61.39330 | 42762 ft | 487 kts | 236° |
| 2026-05-08 01:16 | -36.51276 | -61.46279 | 42767 ft | 487 kts | 236° |
| 2026-05-08 01:17 | -36.55098 | -61.53239 | 42766 ft | 486 kts | 236° |
| 2026-05-08 01:17 | -36.58909 | -61.60194 | 42766 ft | 486 kts | 236° |
| 2026-05-08 01:18 | -36.62712 | -61.67148 | 42770 ft | 486 kts | 236° |
| 2026-05-08 01:18 | -36.66510 | -61.74108 | 42770 ft | 486 kts | 236° |
| 2026-05-08 01:19 | -36.69661 | -61.79891 | 42771 ft | 486 kts | 236° |
| 2026-05-08 01:19 | -36.74065 | -61.87993 | 42775 ft | 486 kts | 236° |
| 2026-05-08 01:20 | -36.77853 | -61.94977 | 42781 ft | 486 kts | 236° |
| 2026-05-08 01:20 | -36.81634 | -62.01963 | 42780 ft | 486 kts | 236° |
| 2026-05-08 01:21 | -36.85412 | -62.08956 | 42786 ft | 486 kts | 236° |
| 2026-05-08 01:21 | -36.89187 | -62.15961 | 42788 ft | 486 kts | 236° |
| 2026-05-08 01:22 | -36.92959 | -62.22973 | 42792 ft | 486 kts | 236° |
| 2026-05-08 01:22 | -36.96694 | -62.29931 | 42793 ft | 485 kts | 236° |
| 2026-05-08 01:23 | -37.00453 | -62.36947 | 42791 ft | 485 kts | 236° |
| 2026-05-08 01:23 | -37.04204 | -62.43965 | 42793 ft | 484 kts | 236° |
| 2026-05-08 01:24 | -37.07948 | -62.50983 | 42803 ft | 484 kts | 236° |
| 2026-05-08 01:24 | -37.11686 | -62.58005 | 42806 ft | 484 kts | 236° |
| 2026-05-08 01:25 | -37.15416 | -62.65027 | 42803 ft | 483 kts | 236° |
| 2026-05-08 01:25 | -37.19137 | -62.72046 | 42810 ft | 482 kts | 236° |
| 2026-05-08 01:26 | -37.22820 | -62.79007 | 42807 ft | 481 kts | 236° |
| 2026-05-08 01:26 | -37.26515 | -62.86007 | 42809 ft | 481 kts | 237° |
| 2026-05-08 01:27 | -37.30198 | -62.92999 | 42813 ft | 480 kts | 237° |
| 2026-05-08 01:27 | -37.33878 | -63.00000 | 42820 ft | 479 kts | 237° |
| 2026-05-08 01:28 | -37.37549 | -63.06983 | 42821 ft | 478 kts | 237° |
| 2026-05-08 01:28 | -37.41195 | -63.13913 | 42825 ft | 477 kts | 237° |
| 2026-05-08 01:29 | -37.44845 | -63.20879 | 42829 ft | 477 kts | 237° |
| 2026-05-08 01:29 | -37.48492 | -63.27846 | 42837 ft | 475 kts | 237° |
| 2026-05-08 01:30 | -37.52125 | -63.34806 | 42834 ft | 475 kts | 237° |
| 2026-05-08 01:30 | -37.55754 | -63.41767 | 42840 ft | 474 kts | 237° |
| 2026-05-08 01:31 | -37.59345 | -63.48675 | 42845 ft | 474 kts | 237° |
| 2026-05-08 01:31 | -37.62948 | -63.55618 | 42847 ft | 473 kts | 237° |
| 2026-05-08 01:32 | -37.66540 | -63.62555 | 42854 ft | 472 kts | 237° |
| 2026-05-08 01:32 | -37.70133 | -63.69508 | 42853 ft | 472 kts | 237° |
| 2026-05-08 01:33 | -37.73732 | -63.76488 | 42861 ft | 475 kts | 237° |
| 2026-05-08 01:33 | -37.77332 | -63.83484 | 42856 ft | 474 kts | 237° |
| 2026-05-08 01:34 | -37.80898 | -63.90430 | 42860 ft | 474 kts | 237° |
| 2026-05-08 01:34 | -37.84487 | -63.97435 | 42867 ft | 474 kts | 237° |
| 2026-05-08 01:35 | -37.88074 | -64.04449 | 42866 ft | 474 kts | 237° |
| 2026-05-08 01:35 | -37.91656 | -64.11471 | 42875 ft | 475 kts | 237° |
| 2026-05-08 01:36 | -37.95240 | -64.18510 | 42878 ft | 475 kts | 237° |
| 2026-05-08 01:36 | -37.98812 | -64.25542 | 42880 ft | 474 kts | 237° |
| 2026-05-08 01:37 | -38.02381 | -64.32583 | 42887 ft | 475 kts | 237° |
| 2026-05-08 01:37 | -38.05944 | -64.39627 | 42871 ft | 474 kts | 237° |
| 2026-05-08 01:38 | -38.09507 | -64.46685 | 42891 ft | 475 kts | 237° |
| 2026-05-08 01:38 | -38.13040 | -64.53713 | 42896 ft | 475 kts | 237° |
| 2026-05-08 01:39 | -38.16593 | -64.60803 | 42891 ft | 475 kts | 237° |
| 2026-05-08 01:39 | -38.20140 | -64.67890 | 42893 ft | 475 kts | 237° |
| 2026-05-08 01:40 | -38.23686 | -64.74995 | 42895 ft | 476 kts | 237° |
| 2026-05-08 01:40 | -38.27232 | -64.82115 | 42907 ft | 477 kts | 237° |
| 2026-05-08 01:41 | -38.30776 | -64.89245 | 42909 ft | 476 kts | 237° |
| 2026-05-08 01:41 | -38.34319 | -64.96388 | 42917 ft | 477 kts | 237° |
| 2026-05-08 01:42 | -38.37833 | -65.03491 | 42916 ft | 477 kts | 237° |
| 2026-05-08 01:42 | -38.41369 | -65.10652 | 42917 ft | 476 kts | 237° |
| 2026-05-08 01:43 | -38.44898 | -65.17816 | 42926 ft | 477 kts | 237° |
| 2026-05-08 01:43 | -38.48430 | -65.25001 | 42932 ft | 477 kts | 237° |
| 2026-05-08 01:44 | -38.51954 | -65.32186 | 42934 ft | 477 kts | 237° |
| 2026-05-08 01:44 | -38.55476 | -65.39384 | 42935 ft | 478 kts | 237° |
| 2026-05-08 01:45 | -38.58401 | -65.45372 | 42940 ft | 478 kts | 237° |
| 2026-05-08 01:45 | -38.61919 | -65.52591 | 42941 ft | 478 kts | 237° |
| 2026-05-08 01:46 | -38.65430 | -65.59812 | 42944 ft | 478 kts | 237° |
| 2026-05-08 01:46 | -38.68946 | -65.67058 | 42944 ft | 478 kts | 237° |
| 2026-05-08 01:47 | -38.72453 | -65.74301 | 42940 ft | 478 kts | 237° |
| 2026-05-08 01:47 | -38.75934 | -65.81508 | 42949 ft | 478 kts | 237° |
| 2026-05-08 01:48 | -38.81179 | -65.92397 | 42956 ft | 478 kts | 237° |
| 2026-05-08 01:48 | -38.84672 | -65.99672 | 42961 ft | 478 kts | 237° |
| 2026-05-08 01:49 | -38.88157 | -66.06943 | 42963 ft | 478 kts | 237° |
| 2026-05-08 01:49 | -38.91637 | -66.14224 | 42972 ft | 478 kts | 237° |
| 2026-05-08 01:50 | -38.95085 | -66.21482 | 42972 ft | 478 kts | 237° |
| 2026-05-08 01:50 | -38.98551 | -66.28784 | 42976 ft | 478 kts | 237° |
| 2026-05-08 01:51 | -38.99697 | -66.31203 | 42982 ft | 478 kts | 237° |
| 2026-05-08 01:51 | -39.05470 | -66.43420 | 42986 ft | 478 kts | 237° |
| 2026-05-08 01:52 | -39.08915 | -66.50733 | 42989 ft | 477 kts | 237° |
| 2026-05-08 01:52 | -39.12328 | -66.57992 | 42986 ft | 477 kts | 237° |
| 2026-05-08 01:53 | -39.15758 | -66.65306 | 42993 ft | 476 kts | 237° |
| 2026-05-08 01:53 | -39.19177 | -66.72613 | 42992 ft | 475 kts | 237° |
| 2026-05-08 01:54 | -39.22588 | -66.79920 | 42996 ft | 475 kts | 237° |
| 2026-05-08 01:54 | -39.25964 | -66.87168 | 42997 ft | 473 kts | 237° |
| 2026-05-08 01:55 | -39.29350 | -66.94455 | 43005 ft | 473 kts | 237° |
| 2026-05-08 01:55 | -39.32726 | -67.01737 | 43011 ft | 472 kts | 237° |
| 2026-05-08 01:56 | -39.36100 | -67.09031 | 43014 ft | 472 kts | 237° |
| 2026-05-08 01:56 | -39.39460 | -67.16312 | 43007 ft | 472 kts | 237° |
| 2026-05-08 01:57 | -39.42822 | -67.23614 | 43008 ft | 473 kts | 237° |
| 2026-05-08 01:57 | -39.46188 | -67.30941 | 43011 ft | 473 kts | 237° |
| 2026-05-08 01:58 | -39.49550 | -67.38278 | 43018 ft | 474 kts | 237° |
| 2026-05-08 01:58 | -39.52928 | -67.45664 | 43020 ft | 477 kts | 237° |
| 2026-05-08 01:59 | -39.56284 | -67.53023 | 43025 ft | 478 kts | 237° |
| 2026-05-08 01:59 | -39.59657 | -67.60438 | 43023 ft | 477 kts | 237° |
| 2026-05-08 02:00 | -39.63030 | -67.67865 | 43030 ft | 477 kts | 237° |
| 2026-05-08 02:00 | -39.66394 | -67.75295 | 43034 ft | 477 kts | 237° |
| 2026-05-08 02:01 | -39.69729 | -67.82675 | 43041 ft | 476 kts | 237° |
| 2026-05-08 02:01 | -39.73070 | -67.90088 | 43046 ft | 475 kts | 237° |
| 2026-05-08 02:02 | -39.76396 | -67.97485 | 43055 ft | 473 kts | 237° |
| 2026-05-08 02:02 | -39.78056 | -68.01183 | 43055 ft | 473 kts | 237° |
| 2026-05-08 02:03 | -39.81388 | -68.08527 | 43042 ft | 470 kts | 234° |
| 2026-05-08 02:03 | -39.86804 | -68.19145 | 43081 ft | 468 kts | 234° |
| 2026-05-08 02:04 | -39.90386 | -68.26214 | 43082 ft | 467 kts | 234° |
| 2026-05-08 02:04 | -39.93961 | -68.33268 | 43085 ft | 466 kts | 234° |
| 2026-05-08 02:05 | -39.97528 | -68.40335 | 43091 ft | 467 kts | 234° |
| 2026-05-08 02:05 | -40.01073 | -68.47367 | 43097 ft | 466 kts | 234° |
| 2026-05-08 02:06 | -40.04652 | -68.54485 | 43101 ft | 466 kts | 234° |
| 2026-05-08 02:06 | -40.08176 | -68.61508 | 43100 ft | 465 kts | 234° |
| 2026-05-08 02:07 | -40.11715 | -68.68579 | 43109 ft | 465 kts | 234° |
| 2026-05-08 02:07 | -40.15239 | -68.75635 | 43102 ft | 461 kts | 234° |
| 2026-05-08 02:08 | -40.16963 | -68.79096 | 42493 ft | 447 kts | 234° |
| 2026-05-08 02:08 | -40.18628 | -68.82444 | 41928 ft | 433 kts | 234° |
| 2026-05-08 02:08 | -40.20250 | -68.85699 | 41365 ft | 420 kts | 234° |
| 2026-05-08 02:08 | -40.21824 | -68.88864 | 40831 ft | 409 kts | 233° |
| 2026-05-08 02:09 | -40.23352 | -68.91943 | 40304 ft | 398 kts | 233° |
| 2026-05-08 02:09 | -40.24843 | -68.94950 | 39785 ft | 390 kts | 233° |
| 2026-05-08 02:09 | -40.26312 | -68.97910 | 39280 ft | 386 kts | 233° |
| 2026-05-08 02:09 | -40.27773 | -69.00857 | 38770 ft | 386 kts | 233° |
| 2026-05-08 02:10 | -40.29237 | -69.03816 | 38219 ft | 389 kts | 233° |
| 2026-05-08 02:10 | -40.30717 | -69.06809 | 37705 ft | 395 kts | 233° |
| 2026-05-08 02:10 | -40.32217 | -69.09848 | 37187 ft | 399 kts | 234° |
| 2026-05-08 02:10 | -40.33707 | -69.12870 | 36662 ft | 401 kts | 234° |
| 2026-05-08 02:11 | -40.35225 | -69.15952 | 36130 ft | 403 kts | 234° |
| 2026-05-08 02:11 | -40.36751 | -69.19051 | 35593 ft | 405 kts | 234° |
| 2026-05-08 02:11 | -40.38286 | -69.22169 | 35061 ft | 408 kts | 234° |
| 2026-05-08 02:11 | -40.39825 | -69.25300 | 34525 ft | 410 kts | 234° |
| 2026-05-08 02:12 | -40.41374 | -69.28456 | 33959 ft | 412 kts | 234° |
| 2026-05-08 02:12 | -40.42928 | -69.31623 | 33402 ft | 413 kts | 234° |
| 2026-05-08 02:12 | -40.44487 | -69.34805 | 32859 ft | 415 kts | 234° |
| 2026-05-08 02:12 | -40.46049 | -69.37995 | 32309 ft | 417 kts | 234° |
| 2026-05-08 02:13 | -40.47620 | -69.41209 | 31758 ft | 419 kts | 234° |
| 2026-05-08 02:13 | -40.49196 | -69.44435 | 31205 ft | 420 kts | 234° |
| 2026-05-08 02:13 | -40.50780 | -69.47679 | 30636 ft | 423 kts | 234° |
| 2026-05-08 02:13 | -40.52360 | -69.50921 | 30070 ft | 419 kts | 234° |
| 2026-05-08 02:14 | -40.53918 | -69.54124 | 29499 ft | 413 kts | 234° |
| 2026-05-08 02:14 | -40.55457 | -69.57289 | 28953 ft | 409 kts | 234° |
| 2026-05-08 02:14 | -40.56981 | -69.60421 | 28418 ft | 404 kts | 234° |
| 2026-05-08 02:14 | -40.58488 | -69.63525 | 27892 ft | 400 kts | 234° |
| 2026-05-08 02:15 | -40.59954 | -69.66549 | 27370 ft | 396 kts | 234° |
| 2026-05-08 02:15 | -40.61427 | -69.69589 | 26849 ft | 391 kts | 234° |
| 2026-05-08 02:15 | -40.62884 | -69.72598 | 26334 ft | 388 kts | 234° |
| 2026-05-08 02:15 | -40.64323 | -69.75574 | 25824 ft | 384 kts | 234° |
| 2026-05-08 02:16 | -40.65753 | -69.78535 | 25322 ft | 380 kts | 234° |
| 2026-05-08 02:16 | -40.67163 | -69.81455 | 24821 ft | 376 kts | 234° |
| 2026-05-08 02:16 | -40.68562 | -69.84356 | 24323 ft | 373 kts | 233° |
| 2026-05-08 02:16 | -40.69944 | -69.87224 | 23837 ft | 369 kts | 233° |
| 2026-05-08 02:17 | -40.71312 | -69.90067 | 23312 ft | 366 kts | 233° |
| 2026-05-08 02:17 | -40.72666 | -69.92882 | 22824 ft | 363 kts | 233° |
| 2026-05-08 02:17 | -40.74014 | -69.95685 | 22341 ft | 360 kts | 233° |
| 2026-05-08 02:17 | -40.75350 | -69.98470 | 21873 ft | 358 kts | 233° |
| 2026-05-08 02:18 | -40.76677 | -70.01237 | 21400 ft | 355 kts | 233° |
| 2026-05-08 02:18 | -40.77994 | -70.03987 | 20931 ft | 353 kts | 233° |
| 2026-05-08 02:18 | -40.79300 | -70.06713 | 20473 ft | 350 kts | 233° |
| 2026-05-08 02:18 | -40.80599 | -70.09427 | 20014 ft | 349 kts | 234° |
| 2026-05-08 02:19 | -40.81871 | -70.12090 | 19555 ft | 346 kts | 234° |
| 2026-05-08 02:19 | -40.83153 | -70.14775 | 19090 ft | 345 kts | 234° |
| 2026-05-08 02:19 | -40.84427 | -70.17445 | 18645 ft | 343 kts | 234° |
| 2026-05-08 02:19 | -40.85694 | -70.20103 | 18160 ft | 340 kts | 234° |
| 2026-05-08 02:20 | -40.86949 | -70.22740 | 17708 ft | 337 kts | 234° |
| 2026-05-08 02:20 | -40.88195 | -70.25357 | 17267 ft | 335 kts | 234° |
| 2026-05-08 02:20 | -40.89432 | -70.27958 | 16819 ft | 333 kts | 234° |
| 2026-05-08 02:20 | -40.90656 | -70.30536 | 16380 ft | 330 kts | 234° |
| 2026-05-08 02:21 | -40.91874 | -70.33102 | 15942 ft | 328 kts | 234° |
| 2026-05-08 02:21 | -40.93081 | -70.35646 | 15513 ft | 325 kts | 234° |
| 2026-05-08 02:21 | -40.94280 | -70.38176 | 15089 ft | 323 kts | 235° |
| 2026-05-08 02:21 | -40.95468 | -70.40686 | 14657 ft | 321 kts | 235° |
| 2026-05-08 02:22 | -40.96642 | -70.43168 | 14244 ft | 317 kts | 235° |
| 2026-05-08 02:22 | -40.97878 | -70.45573 | 13699 ft | 314 kts | 230° |
| 2026-05-08 02:22 | -40.99272 | -70.47784 | 13281 ft | 313 kts | 228° |
| 2026-05-08 02:22 | -41.00652 | -70.50002 | 12869 ft | 312 kts | 229° |
| 2026-05-08 02:23 | -41.02016 | -70.52230 | 12458 ft | 311 kts | 229° |
| 2026-05-08 02:23 | -41.03378 | -70.54446 | 12043 ft | 310 kts | 229° |
| 2026-05-08 02:23 | -41.04739 | -70.56647 | 11640 ft | 308 kts | 228° |
| 2026-05-08 02:23 | -41.06074 | -70.58808 | 11240 ft | 306 kts | 228° |
| 2026-05-08 02:24 | -41.07396 | -70.60959 | 10837 ft | 290 kts | 228° |
| 2026-05-08 02:24 | -41.08622 | -70.62960 | 10456 ft | 270 kts | 228° |
| 2026-05-08 02:24 | -41.09768 | -70.64822 | 10113 ft | 253 kts | 227° |
| 2026-05-08 02:24 | -41.10865 | -70.66601 | 9761 ft | 246 kts | 227° |
| 2026-05-08 02:25 | -41.11937 | -70.68342 | 9438 ft | 243 kts | 228° |
| 2026-05-08 02:25 | -41.13006 | -70.70082 | 9121 ft | 243 kts | 228° |
| 2026-05-08 02:25 | -41.14076 | -70.71826 | 8801 ft | 244 kts | 228° |
| 2026-05-08 02:25 | -41.15151 | -70.73578 | 8486 ft | 245 kts | 229° |
| 2026-05-08 02:26 | -41.16225 | -70.75331 | 8163 ft | 242 kts | 229° |
| 2026-05-08 02:26 | -41.17256 | -70.77017 | 7847 ft | 228 kts | 229° |
| 2026-05-08 02:26 | -41.18233 | -70.78614 | 7543 ft | 218 kts | 229° |
| 2026-05-08 02:26 | -41.19169 | -70.80142 | 7297 ft | 209 kts | 230° |
| 2026-05-08 02:27 | -41.20063 | -70.81603 | 7322 ft | 202 kts | 230° |
| 2026-05-08 02:27 | -41.20972 | -70.83087 | 7225 ft | 209 kts | 230° |
| 2026-05-08 02:27 | -41.21850 | -70.84525 | 7072 ft | 197 kts | 230° |
| 2026-05-08 02:27 | -41.22682 | -70.85889 | 6936 ft | 181 kts | 230° |
| 2026-05-08 02:28 | -41.23454 | -70.87162 | 6765 ft | 172 kts | 232° |
| 2026-05-08 02:28 | -41.23943 | -70.88565 | 6633 ft | 171 kts | 253° |
| 2026-05-08 02:28 | -41.23934 | -70.90169 | 6476 ft | 180 kts | 276° |
| 2026-05-08 02:28 | -41.23450 | -70.91734 | 6325 ft | 184 kts | 289° |
| 2026-05-08 02:29 | -41.22910 | -70.93273 | 6213 ft | 183 kts | 288° |
| 2026-05-08 02:29 | -41.22390 | -70.94792 | 6155 ft | 177 kts | 288° |
| 2026-05-08 02:29 | -41.21893 | -70.96227 | 5884 ft | 164 kts | 289° |
| 2026-05-08 02:29 | -41.21427 | -70.97576 | 5652 ft | 157 kts | 289° |
| 2026-05-08 02:30 | -41.20979 | -70.98868 | 5445 ft | 151 kts | 290° |
| 2026-05-08 02:30 | -41.20550 | -71.00112 | 5242 ft | 145 kts | 290° |
| 2026-05-08 02:30 | -41.20141 | -71.01299 | 5058 ft | 141 kts | 291° |
| 2026-05-08 02:30 | -41.19734 | -71.02471 | 4863 ft | 138 kts | 291° |
| 2026-05-08 02:31 | -41.19334 | -71.03626 | 4656 ft | 137 kts | 292° |
| 2026-05-08 02:31 | -41.18938 | -71.04768 | 4429 ft | 135 kts | 292° |
| 2026-05-08 02:31 | -41.18560 | -71.05857 | 4227 ft | 126 kts | 293° |
| 2026-05-08 02:31 | -41.18200 | -71.06895 | 4038 ft | 123 kts | 294° |
| 2026-05-08 02:32 | -41.17843 | -71.07922 | 3839 ft | 122 kts | 294° |
| 2026-05-08 02:32 | -41.17492 | -71.08931 | 3673 ft | 119 kts | 294° |
| 2026-05-08 02:32 | -41.17135 | -71.09929 | 3485 ft | 120 kts | 294° |
| 2026-05-08 02:32 | -41.16792 | -71.10941 | 3315 ft | 120 kts | 293° |
| 2026-05-08 02:33 | -41.16446 | -71.11943 | 3131 ft | 119 kts | 294° |
| 2026-05-08 02:33 | -41.16106 | -71.12931 | 2973 ft | 117 kts | 295° |
| 2026-05-08 02:33 | -41.15766 | -71.13898 | 2829 ft | 114 kts | 295° |
| 2026-05-08 02:33 | -41.15437 | -71.14840 | 2750 ft | 110 kts | 295° |
| 2026-05-08 02:34 | -41.15167 | -71.15610 | 2747 ft | 63 kts | 294° |
| 2026-05-08 02:34 | -41.15047 | -71.15953 | 2751 ft | 31 kts | 295° |
| 2026-05-08 02:34 | -41.14962 | -71.16199 | 2753 ft | 27 kts | 295° |
| 2026-05-08 02:34 | -41.14885 | -71.16326 | 2750 ft | 11 kts | 0° |
| 2026-05-08 02:35 | -41.14856 | -71.16316 | 2749 ft | 3 kts | 20° |
| 2026-05-08 02:35 | -41.14838 | -71.16307 | 2748 ft | 5 kts | 22° |
| 2026-05-08 02:35 | -41.14815 | -71.16293 | 2748 ft | 0 kts | 25° |
| 2026-05-08 02:37 | -41.14801 | -71.16280 | 2746 ft | 7 kts | 45° |
| 2026-05-08 02:37 | -41.14800 | -71.16200 | 2746 ft | 10 kts | 110° |
| 2026-05-08 02:37 | -41.14829 | -71.16114 | 2746 ft | 11 kts | 115° |
| 2026-05-08 02:37 | -41.14860 | -71.16028 | 2746 ft | 10 kts | 115° |
| 2026-05-08 02:38 | -41.14892 | -71.15939 | 2746 ft | 11 kts | 115° |
| 2026-05-08 02:38 | -41.14923 | -71.15852 | 2746 ft | 11 kts | 115° |
| 2026-05-08 02:38 | -41.14957 | -71.15752 | 2746 ft | 12 kts | 115° |
| 2026-05-08 02:38 | -41.14963 | -71.15653 | 2746 ft | 10 kts | 41° |
| 2026-05-08 02:39 | -41.14898 | -71.15613 | 2746 ft | 10 kts | 12° |
| 2026-05-08 02:39 | -41.14846 | -71.15650 | 2746 ft | 9 kts | 296° |
| 2026-05-08 02:39 | -41.14824 | -71.15715 | 2746 ft | 5 kts | 294° |
| 2026-05-08 02:39 | -41.14822 | -71.15721 | 2746 ft | 0 kts | 295° |